sensor_id;sensor_type;location;lat;lon;timestamp;temperature;humidity
8563;DHT22;16392;52.508;13.468;2023-05-07T00:02:06;9.00;99.90
8563;DHT22;16392;52.508;13.468;2023-05-07T00:04:33;9.00;99.90
8563;DHT22;16392;52.508;13.468;2023-05-07T00:07:02;9.00;99.90
8563;DHT22;16392;52.508;13.468;2023-05-07T00:09:29;9.00;99.90
8563;DHT22;16392;52.508;13.468;2023-05-07T00:11:57;9.00;99.90
8563;DHT22;16392;52.508;13.468;2023-05-07T00:14:23;9.00;99.90
8563;DHT22;16392;52.508;13.468;2023-05-07T00:16:50;9.00;99.90
8563;DHT22;16392;52.508;13.468;2023-05-07T00:19:16;9.00;99.90
8563;DHT22;16392;52.508;13.468;2023-05-07T00:21:43;9.00;99.90
8563;DHT22;16392;52.508;13.468;2023-05-07T00:24:09;9.00;99.90
8563;DHT22;16392;52.508;13.468;2023-05-07T00:26:36;9.00;99.90
8563;DHT22;16392;52.508;13.468;2023-05-07T00:29:05;9.00;99.90
8563;DHT22;16392;52.508;13.468;2023-05-07T00:31:31;9.00;99.90
8563;DHT22;16392;52.508;13.468;2023-05-07T00:33:58;9.00;99.90
8563;DHT22;16392;52.508;13.468;2023-05-07T00:36:24;8.90;99.90
8563;DHT22;16392;52.508;13.468;2023-05-07T00:38:51;8.80;99.90
8563;DHT22;16392;52.508;13.468;2023-05-07T00:41:18;8.70;99.90
8563;DHT22;16392;52.508;13.468;2023-05-07T00:43:45;8.60;99.90
8563;DHT22;16392;52.508;13.468;2023-05-07T00:46:13;8.60;99.90
8563;DHT22;16392;52.508;13.468;2023-05-07T00:48:39;8.70;99.90
8563;DHT22;16392;52.508;13.468;2023-05-07T00:51:06;8.70;99.90
8563;DHT22;16392;52.508;13.468;2023-05-07T00:53:33;8.70;99.90
8563;DHT22;16392;52.508;13.468;2023-05-07T00:56:00;8.70;99.90
8563;DHT22;16392;52.508;13.468;2023-05-07T00:58:26;8.70;99.90
8563;DHT22;16392;52.508;13.468;2023-05-07T01:00:53;8.70;99.90
8563;DHT22;16392;52.508;13.468;2023-05-07T01:03:21;8.80;99.90
8563;DHT22;16392;52.508;13.468;2023-05-07T01:05:48;8.80;99.90
8563;DHT22;16392;52.508;13.468;2023-05-07T01:08:22;8.80;99.90
8563;DHT22;16392;52.508;13.468;2023-05-07T01:10:50;8.80;99.90
8563;DHT22;16392;52.508;13.468;2023-05-07T01:13:17;8.80;99.90
8563;DHT22;16392;52.508;13.468;2023-05-07T01:15:44;8.80;99.90
8563;DHT22;16392;52.508;13.468;2023-05-07T01:18:11;8.80;99.90
8563;DHT22;16392;52.508;13.468;2023-05-07T01:20:39;8.80;99.90
8563;DHT22;16392;52.508;13.468;2023-05-07T01:23:07;8.80;99.90
8563;DHT22;16392;52.508;13.468;2023-05-07T01:25:35;8.80;99.90
8563;DHT22;16392;52.508;13.468;2023-05-07T01:28:01;8.80;99.90
8563;DHT22;16392;52.508;13.468;2023-05-07T01:30:27;8.80;99.90
8563;DHT22;16392;52.508;13.468;2023-05-07T01:32:57;8.90;99.90
8563;DHT22;16392;52.508;13.468;2023-05-07T01:35:26;8.90;99.90
8563;DHT22;16392;52.508;13.468;2023-05-07T01:37:53;8.90;99.90
8563;DHT22;16392;52.508;13.468;2023-05-07T01:40:22;8.90;99.90
8563;DHT22;16392;52.508;13.468;2023-05-07T01:42:48;8.90;99.90
8563;DHT22;16392;52.508;13.468;2023-05-07T01:45:15;8.90;99.90
8563;DHT22;16392;52.508;13.468;2023-05-07T01:47:41;8.90;99.90
8563;DHT22;16392;52.508;13.468;2023-05-07T01:50:08;8.90;99.90
8563;DHT22;16392;52.508;13.468;2023-05-07T01:52:36;8.90;99.90
8563;DHT22;16392;52.508;13.468;2023-05-07T01:55:02;8.90;99.90
8563;DHT22;16392;52.508;13.468;2023-05-07T01:57:30;8.90;99.90
8563;DHT22;16392;52.508;13.468;2023-05-07T01:59:57;8.90;99.90
8563;DHT22;16392;52.508;13.468;2023-05-07T02:02:23;8.90;99.90
8563;DHT22;16392;52.508;13.468;2023-05-07T02:04:50;8.90;99.90
8563;DHT22;16392;52.508;13.468;2023-05-07T02:07:16;8.90;99.90
8563;DHT22;16392;52.508;13.468;2023-05-07T02:09:43;8.90;99.90
8563;DHT22;16392;52.508;13.468;2023-05-07T02:12:09;8.90;99.90
8563;DHT22;16392;52.508;13.468;2023-05-07T02:14:37;8.90;99.90
8563;DHT22;16392;52.508;13.468;2023-05-07T02:17:04;8.90;99.90
8563;DHT22;16392;52.508;13.468;2023-05-07T02:19:31;8.90;99.90
8563;DHT22;16392;52.508;13.468;2023-05-07T02:21:58;8.90;99.90
8563;DHT22;16392;52.508;13.468;2023-05-07T02:24:24;8.90;99.90
8563;DHT22;16392;52.508;13.468;2023-05-07T02:26:51;8.90;99.90
8563;DHT22;16392;52.508;13.468;2023-05-07T02:29:17;8.80;99.90
8563;DHT22;16392;52.508;13.468;2023-05-07T02:31:45;8.90;99.90
8563;DHT22;16392;52.508;13.468;2023-05-07T02:34:12;8.90;99.90
8563;DHT22;16392;52.508;13.468;2023-05-07T02:36:39;8.90;99.90
8563;DHT22;16392;52.508;13.468;2023-05-07T02:39:05;8.90;99.90
8563;DHT22;16392;52.508;13.468;2023-05-07T02:41:32;8.90;99.90
8563;DHT22;16392;52.508;13.468;2023-05-07T02:43:58;8.80;99.90
8563;DHT22;16392;52.508;13.468;2023-05-07T02:46:25;8.90;99.90
8563;DHT22;16392;52.508;13.468;2023-05-07T02:48:53;8.90;99.90
8563;DHT22;16392;52.508;13.468;2023-05-07T02:51:20;8.90;99.90
8563;DHT22;16392;52.508;13.468;2023-05-07T02:53:47;8.90;99.90
8563;DHT22;16392;52.508;13.468;2023-05-07T02:56:13;8.90;99.90
8563;DHT22;16392;52.508;13.468;2023-05-07T02:58:40;8.90;99.90
8563;DHT22;16392;52.508;13.468;2023-05-07T03:01:07;8.90;99.90
8563;DHT22;16392;52.508;13.468;2023-05-07T03:03:34;8.90;99.90
8563;DHT22;16392;52.508;13.468;2023-05-07T03:06:02;8.90;99.90
8563;DHT22;16392;52.508;13.468;2023-05-07T03:08:28;8.90;99.90
8563;DHT22;16392;52.508;13.468;2023-05-07T03:10:55;8.90;99.90
8563;DHT22;16392;52.508;13.468;2023-05-07T03:13:21;8.90;99.90
8563;DHT22;16392;52.508;13.468;2023-05-07T03:15:48;8.90;99.90
8563;DHT22;16392;52.508;13.468;2023-05-07T03:18:14;8.90;99.90
8563;DHT22;16392;52.508;13.468;2023-05-07T03:20:41;8.90;99.90
8563;DHT22;16392;52.508;13.468;2023-05-07T03:23:08;8.90;99.90
8563;DHT22;16392;52.508;13.468;2023-05-07T03:25:43;8.90;99.90
8563;DHT22;16392;52.508;13.468;2023-05-07T03:28:10;8.80;99.90
8563;DHT22;16392;52.508;13.468;2023-05-07T03:30:36;8.80;99.90
8563;DHT22;16392;52.508;13.468;2023-05-07T03:33:02;8.80;99.90
8563;DHT22;16392;52.508;13.468;2023-05-07T03:35:29;8.80;99.90
8563;DHT22;16392;52.508;13.468;2023-05-07T03:37:56;8.70;99.90
8563;DHT22;16392;52.508;13.468;2023-05-07T03:40:24;8.70;99.90
8563;DHT22;16392;52.508;13.468;2023-05-07T03:42:50;8.70;99.90
8563;DHT22;16392;52.508;13.468;2023-05-07T03:45:17;8.80;99.90
8563;DHT22;16392;52.508;13.468;2023-05-07T03:47:43;8.80;99.90
8563;DHT22;16392;52.508;13.468;2023-05-07T03:50:10;8.70;99.90
8563;DHT22;16392;52.508;13.468;2023-05-07T03:52:43;8.70;99.90
8563;DHT22;16392;52.508;13.468;2023-05-07T03:55:10;8.70;99.90
8563;DHT22;16392;52.508;13.468;2023-05-07T03:57:39;8.70;99.90
8563;DHT22;16392;52.508;13.468;2023-05-07T04:00:06;8.70;99.90
8563;DHT22;16392;52.508;13.468;2023-05-07T04:02:33;8.70;99.90
8563;DHT22;16392;52.508;13.468;2023-05-07T04:04:59;8.70;99.90
8563;DHT22;16392;52.508;13.468;2023-05-07T04:07:26;8.70;99.90
8563;DHT22;16392;52.508;13.468;2023-05-07T04:09:53;8.70;99.90
8563;DHT22;16392;52.508;13.468;2023-05-07T04:12:27;8.70;99.90
8563;DHT22;16392;52.508;13.468;2023-05-07T04:14:55;8.70;99.90
8563;DHT22;16392;52.508;13.468;2023-05-07T04:17:22;8.70;99.90
8563;DHT22;16392;52.508;13.468;2023-05-07T04:19:48;8.70;99.90
8563;DHT22;16392;52.508;13.468;2023-05-07T04:22:15;8.60;99.90
8563;DHT22;16392;52.508;13.468;2023-05-07T04:24:41;8.70;99.90
8563;DHT22;16392;52.508;13.468;2023-05-07T04:27:07;8.70;99.90
8563;DHT22;16392;52.508;13.468;2023-05-07T04:29:34;8.70;99.90
8563;DHT22;16392;52.508;13.468;2023-05-07T04:32:02;8.70;99.90
8563;DHT22;16392;52.508;13.468;2023-05-07T04:34:29;8.70;99.90
8563;DHT22;16392;52.508;13.468;2023-05-07T04:36:57;8.70;99.90
8563;DHT22;16392;52.508;13.468;2023-05-07T04:39:23;8.80;99.90
8563;DHT22;16392;52.508;13.468;2023-05-07T04:41:50;8.80;99.90
8563;DHT22;16392;52.508;13.468;2023-05-07T04:44:16;8.90;99.90
8563;DHT22;16392;52.508;13.468;2023-05-07T04:46:43;8.90;99.90
8563;DHT22;16392;52.508;13.468;2023-05-07T04:49:11;9.00;99.90
8563;DHT22;16392;52.508;13.468;2023-05-07T04:51:38;9.00;99.90
8563;DHT22;16392;52.508;13.468;2023-05-07T04:54:08;9.10;99.90
8563;DHT22;16392;52.508;13.468;2023-05-07T04:56:34;9.10;99.90
8563;DHT22;16392;52.508;13.468;2023-05-07T04:59:02;9.10;99.90
8563;DHT22;16392;52.508;13.468;2023-05-07T05:01:28;9.20;99.90
8563;DHT22;16392;52.508;13.468;2023-05-07T05:03:55;9.30;99.90
8563;DHT22;16392;52.508;13.468;2023-05-07T05:06:23;9.30;99.90
8563;DHT22;16392;52.508;13.468;2023-05-07T05:08:49;9.50;99.90
8563;DHT22;16392;52.508;13.468;2023-05-07T05:11:16;9.50;99.90
8563;DHT22;16392;52.508;13.468;2023-05-07T05:13:42;9.60;99.90
8563;DHT22;16392;52.508;13.468;2023-05-07T05:16:09;9.60;99.90
8563;DHT22;16392;52.508;13.468;2023-05-07T05:18:35;9.50;99.90
8563;DHT22;16392;52.508;13.468;2023-05-07T05:21:03;9.40;99.90
8563;DHT22;16392;52.508;13.468;2023-05-07T05:23:31;9.30;99.90
8563;DHT22;16392;52.508;13.468;2023-05-07T05:25:57;9.30;99.90
8563;DHT22;16392;52.508;13.468;2023-05-07T05:28:24;9.20;99.90
8563;DHT22;16392;52.508;13.468;2023-05-07T05:30:51;9.20;99.90
8563;DHT22;16392;52.508;13.468;2023-05-07T05:33:17;9.30;99.90
8563;DHT22;16392;52.508;13.468;2023-05-07T05:35:44;9.40;99.90
8563;DHT22;16392;52.508;13.468;2023-05-07T05:38:10;9.50;99.90
8563;DHT22;16392;52.508;13.468;2023-05-07T05:40:38;9.50;99.90
8563;DHT22;16392;52.508;13.468;2023-05-07T05:43:05;9.50;99.90
8563;DHT22;16392;52.508;13.468;2023-05-07T05:45:32;9.60;99.90
8563;DHT22;16392;52.508;13.468;2023-05-07T05:47:58;9.50;99.90
8563;DHT22;16392;52.508;13.468;2023-05-07T05:50:25;9.70;99.90
8563;DHT22;16392;52.508;13.468;2023-05-07T05:52:51;9.90;27.30
8563;DHT22;16392;52.508;13.468;2023-05-07T05:55:18;9.80;1.00
8563;DHT22;16392;52.508;13.468;2023-05-07T05:57:46;9.70;37.40
8563;DHT22;16392;52.508;13.468;2023-05-07T06:00:13;9.70;99.90
8563;DHT22;16392;52.508;13.468;2023-05-07T06:02:39;9.80;99.90
8563;DHT22;16392;52.508;13.468;2023-05-07T06:05:06;9.80;1.00
8563;DHT22;16392;52.508;13.468;2023-05-07T06:07:33;10.30;1.00
8563;DHT22;16392;52.508;13.468;2023-05-07T06:09:59;10.50;1.00
8563;DHT22;16392;52.508;13.468;2023-05-07T06:12:26;10.50;1.00
8563;DHT22;16392;52.508;13.468;2023-05-07T06:14:54;10.40;1.00
8563;DHT22;16392;52.508;13.468;2023-05-07T06:17:20;10.90;99.90
8563;DHT22;16392;52.508;13.468;2023-05-07T06:19:47;11.00;99.90
8563;DHT22;16392;52.508;13.468;2023-05-07T06:22:13;10.80;1.00
8563;DHT22;16392;52.508;13.468;2023-05-07T06:24:40;10.50;99.90
8563;DHT22;16392;52.508;13.468;2023-05-07T06:27:06;10.30;1.00
8563;DHT22;16392;52.508;13.468;2023-05-07T06:29:33;10.20;1.00
8563;DHT22;16392;52.508;13.468;2023-05-07T06:32:07;10.20;1.00
8563;DHT22;16392;52.508;13.468;2023-05-07T06:34:33;10.00;1.00
8563;DHT22;16392;52.508;13.468;2023-05-07T06:37:00;10.00;1.00
8563;DHT22;16392;52.508;13.468;2023-05-07T06:39:27;10.10;1.00
8563;DHT22;16392;52.508;13.468;2023-05-07T06:41:53;10.40;1.00
8563;DHT22;16392;52.508;13.468;2023-05-07T06:44:21;10.50;1.00
8563;DHT22;16392;52.508;13.468;2023-05-07T06:46:47;10.50;1.00
8563;DHT22;16392;52.508;13.468;2023-05-07T06:49:15;10.90;99.90
8563;DHT22;16392;52.508;13.468;2023-05-07T06:51:42;11.50;92.10
8563;DHT22;16392;52.508;13.468;2023-05-07T06:54:08;11.50;99.90
8563;DHT22;16392;52.508;13.468;2023-05-07T06:56:35;11.60;99.90
8563;DHT22;16392;52.508;13.468;2023-05-07T06:59:01;12.90;1.00
8563;DHT22;16392;52.508;13.468;2023-05-07T07:01:28;12.30;1.00
8563;DHT22;16392;52.508;13.468;2023-05-07T07:03:55;12.60;1.00
8563;DHT22;16392;52.508;13.468;2023-05-07T07:06:23;12.80;1.00
8563;DHT22;16392;52.508;13.468;2023-05-07T07:08:49;13.00;1.00
8563;DHT22;16392;52.508;13.468;2023-05-07T07:11:16;12.90;1.00
8563;DHT22;16392;52.508;13.468;2023-05-07T07:13:42;13.10;84.10
8563;DHT22;16392;52.508;13.468;2023-05-07T07:16:10;13.50;99.90
8563;DHT22;16392;52.508;13.468;2023-05-07T07:18:37;14.60;99.90
8563;DHT22;16392;52.508;13.468;2023-05-07T07:21:03;15.00;1.00
8563;DHT22;16392;52.508;13.468;2023-05-07T07:23:31;14.10;1.00
8563;DHT22;16392;52.508;13.468;2023-05-07T07:25:58;13.50;99.90
8563;DHT22;16392;52.508;13.468;2023-05-07T07:28:24;12.90;1.00
8563;DHT22;16392;52.508;13.468;2023-05-07T07:30:52;13.20;1.00
8563;DHT22;16392;52.508;13.468;2023-05-07T07:33:18;14.20;99.90
8563;DHT22;16392;52.508;13.468;2023-05-07T07:35:45;14.80;15.30
8563;DHT22;16392;52.508;13.468;2023-05-07T07:38:11;14.00;99.90
8563;DHT22;16392;52.508;13.468;2023-05-07T07:40:39;13.20;1.00
8563;DHT22;16392;52.508;13.468;2023-05-07T07:43:07;13.10;99.90
8563;DHT22;16392;52.508;13.468;2023-05-07T07:45:34;13.80;1.00
8563;DHT22;16392;52.508;13.468;2023-05-07T07:48:00;14.00;99.90
8563;DHT22;16392;52.508;13.468;2023-05-07T07:50:27;14.10;99.90
8563;DHT22;16392;52.508;13.468;2023-05-07T07:52:53;14.20;51.20
8563;DHT22;16392;52.508;13.468;2023-05-07T07:55:22;14.70;1.00
8563;DHT22;16392;52.508;13.468;2023-05-07T07:57:50;14.90;1.00
8563;DHT22;16392;52.508;13.468;2023-05-07T08:00:17;15.50;1.00
8563;DHT22;16392;52.508;13.468;2023-05-07T08:02:44;15.60;99.90
8563;DHT22;16392;52.508;13.468;2023-05-07T08:05:11;14.70;1.00
8563;DHT22;16392;52.508;13.468;2023-05-07T08:07:37;15.10;1.00
8563;DHT22;16392;52.508;13.468;2023-05-07T08:10:05;15.70;99.90
8563;DHT22;16392;52.508;13.468;2023-05-07T08:12:32;15.70;99.90
8563;DHT22;16392;52.508;13.468;2023-05-07T08:15:00;15.70;97.10
8563;DHT22;16392;52.508;13.468;2023-05-07T08:17:26;15.30;99.90
8563;DHT22;16392;52.508;13.468;2023-05-07T08:19:53;14.30;99.90
8563;DHT22;16392;52.508;13.468;2023-05-07T08:22:19;14.00;1.00
8563;DHT22;16392;52.508;13.468;2023-05-07T08:24:48;14.10;1.00
8563;DHT22;16392;52.508;13.468;2023-05-07T08:27:15;14.30;1.00
8563;DHT22;16392;52.508;13.468;2023-05-07T08:29:42;13.60;1.00
8563;DHT22;16392;52.508;13.468;2023-05-07T08:32:14;14.20;1.00
8563;DHT22;16392;52.508;13.468;2023-05-07T08:34:40;14.40;1.00
8563;DHT22;16392;52.508;13.468;2023-05-07T08:37:07;14.90;1.00
8563;DHT22;16392;52.508;13.468;2023-05-07T08:39:33;15.20;99.90
8563;DHT22;16392;52.508;13.468;2023-05-07T08:42:00;15.30;99.90
8563;DHT22;16392;52.508;13.468;2023-05-07T08:44:29;15.50;99.90
8563;DHT22;16392;52.508;13.468;2023-05-07T08:46:59;14.60;99.90
8563;DHT22;16392;52.508;13.468;2023-05-07T08:49:28;14.60;99.90
8563;DHT22;16392;52.508;13.468;2023-05-07T08:51:54;14.90;99.90
8563;DHT22;16392;52.508;13.468;2023-05-07T08:54:22;15.70;99.90
8563;DHT22;16392;52.508;13.468;2023-05-07T08:56:49;15.50;72.80
8563;DHT22;16392;52.508;13.468;2023-05-07T08:59:16;15.60;99.90
8563;DHT22;16392;52.508;13.468;2023-05-07T09:01:42;15.50;99.90
8563;DHT22;16392;52.508;13.468;2023-05-07T09:04:09;15.80;99.90
8563;DHT22;16392;52.508;13.468;2023-05-07T09:06:37;15.10;99.90
8563;DHT22;16392;52.508;13.468;2023-05-07T09:09:07;15.30;99.90
8563;DHT22;16392;52.508;13.468;2023-05-07T09:11:34;15.20;92.80
8563;DHT22;16392;52.508;13.468;2023-05-07T09:14:00;15.10;99.90
8563;DHT22;16392;52.508;13.468;2023-05-07T09:16:28;14.50;99.90
8563;DHT22;16392;52.508;13.468;2023-05-07T09:18:57;14.20;99.90
8563;DHT22;16392;52.508;13.468;2023-05-07T09:21:24;14.30;99.90
8563;DHT22;16392;52.508;13.468;2023-05-07T09:23:53;14.50;1.00
8563;DHT22;16392;52.508;13.468;2023-05-07T09:26:21;14.20;1.00
8563;DHT22;16392;52.508;13.468;2023-05-07T09:28:47;14.10;1.00
8563;DHT22;16392;52.508;13.468;2023-05-07T09:31:14;14.30;1.00
8563;DHT22;16392;52.508;13.468;2023-05-07T09:33:40;13.90;1.00
8563;DHT22;16392;52.508;13.468;2023-05-07T09:36:07;13.80;1.00
8563;DHT22;16392;52.508;13.468;2023-05-07T09:38:34;14.00;1.00
8563;DHT22;16392;52.508;13.468;2023-05-07T09:41:03;14.20;1.00
8563;DHT22;16392;52.508;13.468;2023-05-07T09:43:31;14.10;1.00
8563;DHT22;16392;52.508;13.468;2023-05-07T09:45:58;13.90;1.00
8563;DHT22;16392;52.508;13.468;2023-05-07T09:48:25;14.30;1.00
8563;DHT22;16392;52.508;13.468;2023-05-07T09:50:52;14.50;1.00
8563;DHT22;16392;52.508;13.468;2023-05-07T09:53:21;14.50;99.90
8563;DHT22;16392;52.508;13.468;2023-05-07T09:55:48;14.30;99.90
8563;DHT22;16392;52.508;13.468;2023-05-07T09:58:24;13.90;1.00
8563;DHT22;16392;52.508;13.468;2023-05-07T10:00:52;14.80;99.90
8563;DHT22;16392;52.508;13.468;2023-05-07T10:03:19;15.30;99.90
8563;DHT22;16392;52.508;13.468;2023-05-07T10:05:46;15.20;99.90
8563;DHT22;16392;52.508;13.468;2023-05-07T10:08:13;14.50;99.90
8563;DHT22;16392;52.508;13.468;2023-05-07T10:10:42;14.50;99.90
8563;DHT22;16392;52.508;13.468;2023-05-07T10:13:08;14.60;99.90
8563;DHT22;16392;52.508;13.468;2023-05-07T10:15:38;14.50;99.90
8563;DHT22;16392;52.508;13.468;2023-05-07T10:18:04;15.00;99.90
8563;DHT22;16392;52.508;13.468;2023-05-07T10:20:32;15.60;3.70
8563;DHT22;16392;52.508;13.468;2023-05-07T10:22:59;15.90;1.00
8563;DHT22;16392;52.508;13.468;2023-05-07T10:25:28;15.00;18.20
8563;DHT22;16392;52.508;13.468;2023-05-07T10:27:55;15.00;38.80
8563;DHT22;16392;52.508;13.468;2023-05-07T10:30:24;14.80;58.10
8563;DHT22;16392;52.508;13.468;2023-05-07T10:32:55;14.80;99.90
8563;DHT22;16392;52.508;13.468;2023-05-07T10:35:24;15.30;6.60
8563;DHT22;16392;52.508;13.468;2023-05-07T10:37:51;15.00;36.90
8563;DHT22;16392;52.508;13.468;2023-05-07T10:40:19;14.90;99.90
8563;DHT22;16392;52.508;13.468;2023-05-07T10:42:53;14.60;19.10
8563;DHT22;16392;52.508;13.468;2023-05-07T10:45:20;14.60;99.90
8563;DHT22;16392;52.508;13.468;2023-05-07T10:48:06;14.90;99.90
8563;DHT22;16392;52.508;13.468;2023-05-07T10:50:33;15.20;1.00
8563;DHT22;16392;52.508;13.468;2023-05-07T10:53:20;15.30;13.20
8563;DHT22;16392;52.508;13.468;2023-05-07T10:55:47;15.40;23.20
8563;DHT22;16392;52.508;13.468;2023-05-07T10:58:23;15.30;1.00
8563;DHT22;16392;52.508;13.468;2023-05-07T11:00:55;15.20;1.00
8563;DHT22;16392;52.508;13.468;2023-05-07T11:03:25;15.30;1.00
8563;DHT22;16392;52.508;13.468;2023-05-07T11:06:11;14.90;1.00
8563;DHT22;16392;52.508;13.468;2023-05-07T11:08:53;14.80;1.00
8563;DHT22;16392;52.508;13.468;2023-05-07T11:14:03;14.90;1.00
8563;DHT22;16392;52.508;13.468;2023-05-07T11:16:29;15.10;1.00
8563;DHT22;16392;52.508;13.468;2023-05-07T11:18:59;15.60;1.00
8563;DHT22;16392;52.508;13.468;2023-05-07T11:21:33;15.60;1.00
8563;DHT22;16392;52.508;13.468;2023-05-07T11:24:03;16.00;1.00
8563;DHT22;16392;52.508;13.468;2023-05-07T11:26:32;16.40;1.00
8563;DHT22;16392;52.508;13.468;2023-05-07T11:29:10;16.40;1.00
8563;DHT22;16392;52.508;13.468;2023-05-07T11:31:36;16.40;1.00
8563;DHT22;16392;52.508;13.468;2023-05-07T11:34:04;17.10;1.00
8563;DHT22;16392;52.508;13.468;2023-05-07T11:36:32;16.70;1.00
8563;DHT22;16392;52.508;13.468;2023-05-07T11:39:01;16.00;1.00
8563;DHT22;16392;52.508;13.468;2023-05-07T11:41:35;15.70;1.00
8563;DHT22;16392;52.508;13.468;2023-05-07T11:44:02;15.70;1.00
8563;DHT22;16392;52.508;13.468;2023-05-07T11:46:29;15.90;1.00
8563;DHT22;16392;52.508;13.468;2023-05-07T11:48:56;15.80;1.00
8563;DHT22;16392;52.508;13.468;2023-05-07T12:18:46;15.60;1.00
8563;DHT22;16392;52.508;13.468;2023-05-07T12:21:14;15.50;1.00
8563;DHT22;16392;52.508;13.468;2023-05-07T12:27:56;15.40;1.00
8563;DHT22;16392;52.508;13.468;2023-05-07T12:30:24;16.00;1.00
8563;DHT22;16392;52.508;13.468;2023-05-07T12:32:52;16.20;99.90
8563;DHT22;16392;52.508;13.468;2023-05-07T12:35:25;16.70;99.90
8563;DHT22;16392;52.508;13.468;2023-05-07T12:37:54;17.00;99.90
8563;DHT22;16392;52.508;13.468;2023-05-07T12:40:21;17.50;99.90
8563;DHT22;16392;52.508;13.468;2023-05-07T12:42:47;16.80;99.90
8563;DHT22;16392;52.508;13.468;2023-05-07T12:45:21;16.70;99.90
8563;DHT22;16392;52.508;13.468;2023-05-07T12:47:47;17.20;99.90
8563;DHT22;16392;52.508;13.468;2023-05-07T12:50:14;17.00;99.90
8563;DHT22;16392;52.508;13.468;2023-05-07T12:52:42;17.00;99.90
8563;DHT22;16392;52.508;13.468;2023-05-07T12:55:09;16.50;99.90
8563;DHT22;16392;52.508;13.468;2023-05-07T12:57:38;16.00;99.90
8563;DHT22;16392;52.508;13.468;2023-05-07T13:00:06;15.90;99.90
8563;DHT22;16392;52.508;13.468;2023-05-07T13:02:36;16.40;99.90
8563;DHT22;16392;52.508;13.468;2023-05-07T13:05:03;16.40;99.90
8563;DHT22;16392;52.508;13.468;2023-05-07T13:07:32;16.10;99.90
8563;DHT22;16392;52.508;13.468;2023-05-07T13:09:59;15.90;99.90
8563;DHT22;16392;52.508;13.468;2023-05-07T13:12:25;16.60;99.90
8563;DHT22;16392;52.508;13.468;2023-05-07T13:14:52;17.60;99.90
8563;DHT22;16392;52.508;13.468;2023-05-07T13:17:18;17.80;99.90
8563;DHT22;16392;52.508;13.468;2023-05-07T13:19:46;17.30;99.90
8563;DHT22;16392;52.508;13.468;2023-05-07T13:22:12;16.70;99.90
8563;DHT22;16392;52.508;13.468;2023-05-07T13:24:39;16.30;99.90
8563;DHT22;16392;52.508;13.468;2023-05-07T13:27:06;16.50;99.90
8563;DHT22;16392;52.508;13.468;2023-05-07T13:29:33;17.30;99.90
8563;DHT22;16392;52.508;13.468;2023-05-07T13:32:00;17.50;99.90
8563;DHT22;16392;52.508;13.468;2023-05-07T13:34:27;17.20;99.90
8563;DHT22;16392;52.508;13.468;2023-05-07T13:36:55;16.70;99.90
8563;DHT22;16392;52.508;13.468;2023-05-07T13:39:22;16.30;99.90
8563;DHT22;16392;52.508;13.468;2023-05-07T13:41:48;16.80;99.90
8563;DHT22;16392;52.508;13.468;2023-05-07T13:44:15;16.80;99.90
8563;DHT22;16392;52.508;13.468;2023-05-07T13:46:41;17.10;99.90
8563;DHT22;16392;52.508;13.468;2023-05-07T13:49:08;17.00;99.90
8563;DHT22;16392;52.508;13.468;2023-05-07T13:51:36;16.90;99.90
8563;DHT22;16392;52.508;13.468;2023-05-07T13:54:04;16.50;99.90
8563;DHT22;16392;52.508;13.468;2023-05-07T13:56:32;16.90;99.90
8563;DHT22;16392;52.508;13.468;2023-05-07T13:58:59;16.70;99.90
8563;DHT22;16392;52.508;13.468;2023-05-07T14:01:25;16.50;99.90
8563;DHT22;16392;52.508;13.468;2023-05-07T14:03:52;16.10;99.90
8563;DHT22;16392;52.508;13.468;2023-05-07T14:06:19;16.10;99.90
8563;DHT22;16392;52.508;13.468;2023-05-07T14:08:45;16.20;99.90
8563;DHT22;16392;52.508;13.468;2023-05-07T14:11:14;16.50;99.90
8563;DHT22;16392;52.508;13.468;2023-05-07T14:13:41;16.50;99.90
8563;DHT22;16392;52.508;13.468;2023-05-07T14:16:08;16.40;99.90
8563;DHT22;16392;52.508;13.468;2023-05-07T14:18:35;16.50;99.90
8563;DHT22;16392;52.508;13.468;2023-05-07T14:21:03;16.20;99.90
8563;DHT22;16392;52.508;13.468;2023-05-07T14:23:31;15.90;99.90
8563;DHT22;16392;52.508;13.468;2023-05-07T14:25:58;15.70;99.90
8563;DHT22;16392;52.508;13.468;2023-05-07T14:28:25;15.50;99.90
8563;DHT22;16392;52.508;13.468;2023-05-07T14:30:52;15.90;99.90
8563;DHT22;16392;52.508;13.468;2023-05-07T14:33:18;16.10;99.90
8563;DHT22;16392;52.508;13.468;2023-05-07T14:35:45;16.00;99.90
8563;DHT22;16392;52.508;13.468;2023-05-07T14:38:13;15.90;99.90
8563;DHT22;16392;52.508;13.468;2023-05-07T14:40:40;15.80;99.90
8563;DHT22;16392;52.508;13.468;2023-05-07T14:43:06;15.80;99.90
8563;DHT22;16392;52.508;13.468;2023-05-07T14:45:34;15.70;99.90
8563;DHT22;16392;52.508;13.468;2023-05-07T14:48:01;15.90;99.90
8563;DHT22;16392;52.508;13.468;2023-05-07T14:50:27;16.20;99.90
8563;DHT22;16392;52.508;13.468;2023-05-07T14:52:54;16.60;99.90
8563;DHT22;16392;52.508;13.468;2023-05-07T14:55:20;16.80;99.90
8563;DHT22;16392;52.508;13.468;2023-05-07T14:57:47;16.90;99.90
8563;DHT22;16392;52.508;13.468;2023-05-07T15:00:14;16.70;99.90
8563;DHT22;16392;52.508;13.468;2023-05-07T15:02:42;16.40;99.90
8563;DHT22;16392;52.508;13.468;2023-05-07T15:05:08;16.70;99.90
8563;DHT22;16392;52.508;13.468;2023-05-07T15:07:35;17.00;99.90
8563;DHT22;16392;52.508;13.468;2023-05-07T15:10:01;16.90;99.90
8563;DHT22;16392;52.508;13.468;2023-05-07T15:12:28;16.40;99.90
8563;DHT22;16392;52.508;13.468;2023-05-07T15:14:54;16.20;99.90
8563;DHT22;16392;52.508;13.468;2023-05-07T15:17:21;16.10;99.90
8563;DHT22;16392;52.508;13.468;2023-05-07T15:19:49;16.10;99.90
8563;DHT22;16392;52.508;13.468;2023-05-07T15:22:15;16.20;99.90
8563;DHT22;16392;52.508;13.468;2023-05-07T15:24:41;16.20;99.90
8563;DHT22;16392;52.508;13.468;2023-05-07T15:27:09;16.30;99.90
8563;DHT22;16392;52.508;13.468;2023-05-07T15:29:37;16.20;99.90
8563;DHT22;16392;52.508;13.468;2023-05-07T15:32:03;16.00;99.90
8563;DHT22;16392;52.508;13.468;2023-05-07T15:34:30;16.10;99.90
8563;DHT22;16392;52.508;13.468;2023-05-07T15:36:58;16.00;99.90
8563;DHT22;16392;52.508;13.468;2023-05-07T15:39:25;15.80;99.90
8563;DHT22;16392;52.508;13.468;2023-05-07T15:41:51;15.70;99.90
8563;DHT22;16392;52.508;13.468;2023-05-07T15:44:18;15.50;99.90
8563;DHT22;16392;52.508;13.468;2023-05-07T15:46:46;15.30;99.90
8563;DHT22;16392;52.508;13.468;2023-05-07T15:49:13;15.30;99.90
8563;DHT22;16392;52.508;13.468;2023-05-07T15:51:39;15.40;99.90
8563;DHT22;16392;52.508;13.468;2023-05-07T15:54:07;15.60;99.90
8563;DHT22;16392;52.508;13.468;2023-05-07T15:56:34;15.70;99.90
8563;DHT22;16392;52.508;13.468;2023-05-07T15:59:00;15.80;99.90
8563;DHT22;16392;52.508;13.468;2023-05-07T16:01:28;15.90;99.90
8563;DHT22;16392;52.508;13.468;2023-05-07T16:03:55;16.00;99.90
8563;DHT22;16392;52.508;13.468;2023-05-07T16:06:21;15.90;99.90
8563;DHT22;16392;52.508;13.468;2023-05-07T16:08:48;16.10;99.90
8563;DHT22;16392;52.508;13.468;2023-05-07T16:11:15;16.30;99.90
8563;DHT22;16392;52.508;13.468;2023-05-07T16:13:42;16.20;99.90
8563;DHT22;16392;52.508;13.468;2023-05-07T16:16:09;16.30;99.90